createdAt,value
2017-07-10T13:29:24.000Z,11.17
2017-07-10T13:32:04.638Z,6.47
2017-07-10T13:34:47.958Z,14.83
2017-07-10T13:37:32.206Z,9.77
2017-07-10T13:40:20.166Z,10.23
2017-07-10T13:43:02.658Z,7.17
2017-07-10T13:45:49.640Z,8.67
2017-07-10T13:48:36.604Z,7.53
2017-07-10T13:51:23.550Z,8.37
2017-07-10T13:54:09.904Z,4.13
2017-07-10T13:56:52.637Z,7.90
2017-07-10T13:59:37.676Z,5.87
2017-07-10T14:02:22.453Z,12.00
2017-07-10T14:05:06.162Z,8.47
2017-07-10T14:07:46.547Z,6.40
2017-07-10T14:10:32.591Z,6.23
2017-07-10T14:13:17.550Z,15.60
2017-07-10T14:16:02.898Z,6.67
2017-07-10T14:18:43.837Z,4.00
2017-07-10T14:21:25.009Z,29.03
2017-07-10T14:24:07.974Z,9.20
2017-07-10T14:26:49.623Z,8.50
2017-07-10T14:29:33.674Z,7.60
2017-07-10T14:32:15.104Z,9.00
2017-07-10T14:34:56.758Z,5.33
2017-07-10T14:37:36.292Z,9.80
2017-07-10T14:40:18.709Z,2.20
2017-07-10T14:43:02.726Z,8.33
2017-07-10T14:45:50.122Z,4.90
2017-07-10T14:48:35.451Z,3.37
2017-07-10T14:51:12.133Z,6.80
2017-07-10T14:53:52.659Z,4.13
2017-07-10T14:56:39.706Z,7.33
2017-07-10T14:59:26.234Z,9.30
2017-07-10T15:02:12.932Z,2.50
2017-07-10T15:04:58.640Z,4.77
2017-07-10T15:07:40.901Z,8.17
2017-07-10T15:10:25.766Z,2.63
2017-07-10T15:13:06.453Z,4.07
2017-07-10T15:15:55.455Z,9.57
2017-07-10T15:18:30.611Z,1.53
2017-07-10T15:21:18.775Z,12.40
2017-07-10T15:23:49.327Z,6.10
2017-07-10T15:26:37.157Z,3.80
2017-07-10T15:29:09.102Z,7.00
2017-07-10T15:31:56.578Z,4.70
2017-07-10T15:34:40.792Z,3.53
2017-07-10T15:37:22.783Z,10.73
2017-07-10T15:40:04.056Z,3.23
2017-07-10T15:42:49.722Z,4.47
2017-07-10T15:45:36.855Z,19.90
2017-07-10T15:48:22.353Z,20.10
2017-07-10T15:51:09.044Z,23.17
2017-07-10T15:53:52.727Z,28.63
2017-07-10T15:56:40.319Z,32.33
2017-07-10T15:59:22.129Z,34.90
2017-07-10T16:02:06.489Z,44.77
2017-07-10T16:04:47.751Z,28.47
2017-07-10T16:07:35.602Z,30.23
2017-07-10T16:10:23.691Z,25.53
2017-07-10T16:13:08.777Z,31.77
2017-07-10T16:15:55.235Z,31.83
2017-07-10T16:18:25.367Z,25.27
2017-07-10T16:20:55.358Z,21.10
2017-07-10T16:23:27.060Z,49.40
2017-07-10T16:25:56.744Z,31.73
2017-07-10T16:28:27.067Z,25.47
2017-07-10T16:30:56.637Z,21.10
2017-07-10T16:33:27.128Z,32.57
2017-07-10T16:35:57.032Z,18.27
2017-07-10T16:38:26.715Z,27.73
2017-07-10T16:41:11.652Z,17.00
2017-07-10T16:43:41.579Z,20.60
2017-07-10T16:46:12.569Z,17.77
2017-07-10T16:48:42.197Z,19.35
2017-07-10T16:51:27.248Z,15.23
2017-07-10T16:53:56.916Z,29.10
2017-07-10T16:56:42.429Z,22.57
2017-07-10T16:59:27.701Z,13.03
2017-07-10T17:02:14.199Z,19.30
2017-07-10T17:04:43.832Z,19.43
2017-07-10T17:07:30.379Z,30.30
2017-07-10T17:10:13.995Z,9.67
2017-07-10T17:12:49.158Z,11.60
2017-07-10T17:15:30.856Z,29.00
2017-07-10T17:18:03.152Z,23.53
2017-07-10T17:20:38.953Z,24.87
2017-07-10T17:23:25.945Z,23.27
2017-07-10T17:26:12.210Z,30.73
2017-07-10T17:29:02.465Z,27.80
2017-07-10T17:31:48.590Z,28.07
2017-07-10T17:34:28.322Z,14.90
2017-07-10T17:37:13.657Z,12.80
2017-07-10T17:39:55.969Z,15.20
2017-07-10T17:42:39.167Z,11.37
2017-07-10T17:45:26.279Z,14.73
2017-07-10T17:47:56.022Z,18.73
2017-07-10T17:50:43.719Z,13.57
2017-07-10T17:53:30.425Z,10.73
2017-07-10T17:56:18.368Z,14.77
2017-07-10T17:58:53.590Z,10.10
2017-07-10T18:01:38.847Z,13.30
2017-07-10T18:04:25.715Z,15.33
2017-07-10T18:07:12.585Z,13.70
2017-07-10T18:09:42.425Z,12.37
2017-07-10T18:12:27.985Z,8.23
2017-07-10T18:15:13.546Z,16.10
2017-07-10T18:17:57.110Z,7.70
2017-07-10T18:20:42.426Z,12.40
2017-07-10T18:23:28.956Z,22.00
2017-07-10T18:26:10.607Z,8.30
2017-07-10T18:28:56.126Z,9.63
2017-07-10T18:31:40.914Z,16.10
2017-07-10T18:34:23.731Z,14.70
2017-07-10T18:37:09.201Z,16.03
2017-07-10T18:39:58.214Z,4.43
2017-07-10T18:42:47.488Z,4.77
2017-07-10T18:45:35.534Z,8.93
2017-07-10T18:48:18.227Z,11.20
2017-07-10T18:51:04.706Z,20.93
2017-07-10T18:53:48.349Z,14.40
2017-07-10T18:56:34.773Z,16.63
2017-07-10T18:59:21.307Z,15.63
2017-07-10T19:02:07.056Z,8.67
2017-07-10T19:04:52.480Z,12.10
2017-07-10T19:07:39.139Z,10.63
2017-07-10T19:10:20.508Z,17.77
2017-07-10T19:13:07.955Z,11.23
2017-07-10T19:15:48.753Z,10.43
2017-07-10T19:18:30.231Z,16.67
2017-07-10T19:21:10.932Z,22.83
2017-07-10T19:23:50.215Z,7.37
2017-07-10T19:26:36.075Z,10.47
2017-07-10T19:29:24.375Z,6.27
2017-07-10T19:31:54.086Z,15.20
2017-07-10T19:34:36.865Z,8.90
2017-07-10T19:37:23.835Z,9.70
2017-07-10T19:40:10.720Z,6.70
2017-07-10T19:42:57.132Z,15.63
2017-07-10T19:45:27.350Z,15.30
2017-07-10T19:47:57.008Z,7.80
2017-07-10T19:50:26.827Z,16.47
2017-07-10T19:52:56.988Z,9.50
2017-07-10T19:55:26.707Z,8.37
2017-07-10T19:57:56.618Z,21.00
2017-07-10T20:00:26.517Z,13.40
2017-07-10T20:02:57.415Z,6.70
2017-07-10T20:05:27.497Z,11.70
2017-07-10T20:07:58.107Z,8.83
2017-07-10T20:10:28.736Z,7.30
2017-07-10T20:12:58.507Z,11.10
2017-07-10T20:15:28.168Z,16.53
2017-07-10T20:17:58.397Z,20.97
2017-07-10T20:20:29.096Z,6.63
2017-07-10T20:23:02.647Z,14.70
2017-07-10T20:25:48.628Z,32.20
2017-07-10T20:28:31.198Z,8.43
2017-07-10T20:31:15.185Z,14.73
2017-07-10T20:33:59.947Z,15.43
2017-07-10T20:36:29.603Z,10.73
2017-07-10T20:39:00.113Z,15.43
2017-07-10T20:41:30.053Z,12.13
2017-07-10T20:43:59.962Z,11.17
2017-07-10T20:46:29.606Z,20.07
